Sukhothai Airport

VTPO · Sukhothai, Tailândia

História da METAR VTPO · Sukhothai Airport

Abaixo você vê METARs dos últimos dias. Selecione um ano para navegar pelos METARs mais antigos, a partir do ano 2007.

23 de maio de 2024

Hora Código Clima Temp. Visibilidade Tecto Vento METAR/SPECI
03:00
V
27 °C 10 km+ - 360° 360° 0 kt METAR VTCC 222000Z 00000KT 9999 SCT035 27/24 Q1007 NOSIG
02:30
V
27 °C 10 km+ 3.500 ft 290° 290° 2 kt METAR VTCC 221930Z 29002KT 9999 BKN035 27/24 Q1008 NOSIG
02:00
V
28 °C 10 km+ 3.500 ft Var Var 1 kt METAR VTCC 221900Z VRB01KT 9999 BKN035 28/24 Q1008 NOSIG
01:30
V
27 °C 10 km+ - Var Var 2 kt METAR VTCC 221830Z VRB02KT 9999 SCT040 27/24 Q1008 NOSIG
01:00
V
27 °C 10 km+ - 350° 350° 1 kt METAR VTCC 221800Z 35001KT 9999 SCT040 27/24 Q1008 NOSIG
00:30
V
27 °C 10 km+ - 230° 230° 2 kt METAR VTCC 221730Z 23002KT 9999 SCT040 27/24 Q1008 NOSIG
00:00
V
28 °C 10 km+ - 360° 360° 0 kt METAR VTCC 221700Z 00000KT 9999 SCT035 28/24 Q1008 NOSIG

22 de maio de 2024

Hora Código Clima Temp. Visibilidade Tecto Vento METAR/SPECI
23:30
V
28 °C 10 km+ - Var Var 1 kt METAR VTCC 221630Z VRB01KT 9999 SCT035 28/24 Q1009 NOSIG
23:00
V
28 °C 10 km+ - Var Var 2 kt METAR VTCC 221600Z VRB02KT 9999 SCT035 28/23 Q1009 NOSIG
22:30
V
28 °C 10 km+ - 250° 250° 3 kt METAR VTCC 221530Z 25003KT 210V360 9999 SCT035 28/23 Q1009 NOSIG
22:00
V
28 °C 10 km+ - 360° 360° 0 kt METAR VTCC 221500Z 00000KT 9999 SCT035 28/23 Q1008 NOSIG
21:30
V
29 °C 10 km+ - 270° 270° 5 kt METAR VTCC 221430Z 27005KT 9999 SCT035 29/23 Q1008 NOSIG
21:00
V
28 °C 10 km+ - 280° 280° 9 kt METAR VTCC 221400Z 28009KT 9999 VCTS FEW025CB SCT035 28/22 Q1008 NOSIG
20:30
V
31 °C 10 km+ - 130° 130° 3 kt METAR VTCC 221330Z 13003KT 100V190 9999 VCTS FEW025CB SCT035 31/23 Q1007 TEMPO -TSRA
20:00
V
31 °C 10 km+ - 120° 120° 4 kt METAR VTCC 221300Z 12004KT 9999 SCT035 31/23 Q1007 NOSIG
19:30
V
31 °C 10 km+ - 110° 110° 4 kt METAR VTCC 221230Z 11004KT 070V150 9999 SCT035 31/23 Q1006 NOSIG
19:00
V
32 °C 10 km+ - 190° 190° 5 kt METAR VTCC 221200Z 19005KT 9999 SCT035 32/22 Q1006 NOSIG
18:30
V
32 °C 10 km+ - 180° 180° 5 kt METAR VTCC 221130Z 18005KT 140V200 9999 SCT035 32/22 Q1005 NOSIG
18:00
V
33 °C 10 km+ - 200° 200° 6 kt METAR VTCC 221100Z 20006KT 170V230 9999 SCT035 33/22 Q1005 NOSIG
17:30
V
34 °C 10 km+ - 200° 200° 4 kt METAR VTCC 221030Z 20004KT 150V290 9999 SCT035 34/22 Q1005 NOSIG
17:00
V
34 °C 10 km+ - 190° 190° 5 kt METAR VTCC 221000Z 19005KT 110V260 9999 SCT035 34/22 Q1005 NOSIG
16:30
V
34 °C 10 km+ - 200° 200° 5 kt METAR VTCC 220930Z 20005KT 160V240 9999 SCT035 34/22 Q1005 NOSIG
16:00
V
33 °C 10 km+ - Var Var 5 kt METAR VTCC 220900Z VRB05KT 9999 SCT035 33/22 Q1005 NOSIG
15:30
V
34 °C 10 km+ - 140° 140° 7 kt METAR VTCC 220830Z 14007KT 090V230 9999 SCT035 34/22 Q1005 NOSIG
15:00
V
33 °C 10 km+ - 200° 200° 6 kt METAR VTCC 220800Z 20006KT 120V260 9999 SCT035 33/22 Q1006 NOSIG
14:30
V
32 °C 10 km+ - 230° 230° 6 kt METAR VTCC 220730Z 23006KT 170V300 9999 SCT035 32/22 Q1007 NOSIG
14:00
V
33 °C 10 km+ - 160° 160° 5 kt METAR VTCC 220700Z 16005KT 080V220 9999 SCT035 33/23 Q1007 NOSIG
13:30
V
32 °C 10 km+ - Var Var 4 kt METAR VTCC 220630Z VRB04KT 9999 FEW025TCU SCT035 32/22 Q1008 NOSIG
13:00
V
31 °C 10 km+ - 200° 200° 6 kt METAR VTCC 220600Z 20006KT 130V270 9999 SCT030 31/23 Q1008 NOSIG
12:30
V
31 °C 10 km+ - 200° 200° 6 kt METAR VTCC 220530Z 20006KT 130V270 9999 SCT030 31/23 Q1009 NOSIG
12:00
V
31 °C 10 km+ - 210° 210° 6 kt METAR VTCC 220500Z 21006KT 160V270 9999 SCT030 31/23 Q1009 NOSIG
11:30
M
30 °C 10 km+ 2.800 ft 190° 190° 3 kt METAR VTCC 220430Z 19003KT 120V230 9999 BKN028 30/22 Q1010 NOSIG
11:00
V
29 °C 10 km+ - 120° 120° 3 kt METAR VTCC 220400Z 12003KT 060V180 9999 SCT028 29/22 Q1010 NOSIG
10:30
V
30 °C 10 km+ - Var Var 3 kt METAR VTCC 220330Z VRB03KT 9999 SCT028 30/23 Q1011 NOSIG
10:00
V
29 °C 10 km+ - Var Var 3 kt METAR VTCC 220300Z VRB03KT 9999 SCT028 29/22 Q1011 NOSIG
09:30
V
28 °C 10 km+ - Var Var 2 kt METAR VTCC 220230Z VRB02KT 9999 SCT028 28/22 Q1011 NOSIG
09:00
V
27 °C 10 km+ - 350° 350° 3 kt METAR VTCC 220200Z 35003KT 250V050 9999 FEW018 SCT030 27/22 Q1011 NOSIG
08:30
V
26 °C 10 km+ - 010° 010° 4 kt METAR VTCC 220130Z 01004KT 330V040 9999 FEW015 SCT030 26/22 Q1011 NOSIG
08:00
V
25 °C 10 km+ - 350° 350° 3 kt METAR VTCC 220100Z 35003KT 310V020 9999 FEW012 SCT035 25/22 Q1011 NOSIG
07:30
V
25 °C 10 km+ - 010° 010° 5 kt METAR VTCC 220030Z 01005KT 9999 FEW012 SCT035 25/22 Q1010 NOSIG
07:00
V
24 °C 10 km+ - 020° 020° 4 kt METAR VTCC 220000Z 02004KT 330V130 9999 SCT035 24/22 Q1010 NOSIG
06:30
V
24 °C 10 km+ - 330° 330° 3 kt METAR VTCC 212330Z 33003KT 9999 FEW015 SCT035 24/22 Q1010 NOSIG
06:00
V
24 °C 10 km+ - 320° 320° 3 kt METAR VTCC 212300Z 32003KT 280V020 9999 FEW015 SCT030 24/22 Q1010 NOSIG
05:30
V
24 °C 10 km+ - 020° 020° 4 kt METAR VTCC 212230Z 02004KT 9999 FEW015 SCT030 24/22 Q1010 NOSIG
05:00
M
24 °C 10 km+ 3.000 ft 360° 360° 4 kt METAR VTCC 212200Z 36004KT 9999 SCT015 BKN030 24/22 Q1010 NOSIG
04:30
M
24 °C 10 km+ 3.000 ft 040° 040° 3 kt METAR VTCC 212130Z 04003KT 9999 SCT015 BKN030 24/22 Q1010 NOSIG
04:00
M
24 °C 10 km+ 3.000 ft 010° 010° 4 kt METAR VTCC 212100Z 01004KT 9999 SCT015 BKN030 24/22 Q1010 NOSIG
03:30
M
24 °C 10 km+ 3.000 ft 010° 010° 4 kt METAR VTCC 212030Z 01004KT 9999 SCT015 BKN030 24/22 Q1010 NOSIG
03:00
M
24 °C 10 km+ 3.000 ft Var Var 2 kt METAR VTCC 212000Z VRB02KT 9999 SCT015 BKN030 24/22 Q1010 NOSIG
02:30
M
24 °C 10 km+ 3.000 ft 330° 330° 2 kt METAR VTCC 211930Z 33002KT 9999 SCT015 BKN030 24/22 Q1010 NOSIG
02:00
M
24 °C 10 km+ 3.000 ft Var Var 2 kt METAR VTCC 211900Z VRB02KT 9999 SCT015 BKN030 24/22 Q1010 NOSIG
01:30
M
24 °C 10 km+ 3.000 ft 280° 280° 2 kt METAR VTCC 211830Z 28002KT 9999 SCT012 BKN030 24/22 Q1011 NOSIG
01:00
M
24 °C 10 km+ 3.000 ft 300° 300° 3 kt METAR VTCC 211800Z 30003KT 280V340 9999 SCT012 BKN030 24/22 Q1011 NOSIG
00:30
M
24 °C 10 km+ 3.000 ft 010° 010° 4 kt METAR VTCC 211730Z 01004KT 340V040 9999 SCT012 BKN030 24/23 Q1011 NOSIG
00:00
M
24 °C 10 km+ 3.000 ft 050° 050° 4 kt METAR VTCC 211700Z 05004KT 9999 SCT012 BKN030 24/22 Q1011 NOSIG

21 de maio de 2024

Hora Código Clima Temp. Visibilidade Tecto Vento METAR/SPECI
23:30
M
24 °C 10 km+ 3.000 ft 360° 360° 0 kt METAR VTCC 211630Z 00000KT 9999 SCT010 BKN030 24/22 Q1011 NOSIG
23:00
M
24 °C 10 km+ 3.000 ft 170° 170° 4 kt METAR VTCC 211600Z 17004KT 9999 SCT010 BKN030 24/23 Q1011 NOSIG
22:30
M
24 °C 8 km 3.000 ft 190° 190° 4 kt METAR VTCC 211530Z 19004KT 170V260 8000 -RA FEW010 BKN030 24/23 Q1011 RETS NOSIG
22:00
M
24 °C 7 km 3.500 ft 210° 210° 6 kt METAR VTCC 211500Z 21006KT 180V240 7000 -TSRA FEW022CB BKN035 24/23 Q1011 NOSIG
21:30
M
24 °C 7 km 3.500 ft 210° 210° 8 kt METAR VTCC 211430Z 21008KT 7000 -TSRA FEW022CB BKN035 24/23 Q1010 NOSIG
21:00
M
24 °C 7 km 3.500 ft 230° 230° 6 kt METAR VTCC 211400Z 23006KT 7000 -TSRA FEW022CB BKN035 24/22 Q1010 NOSIG
20:30
M
24 °C 7 km 3.500 ft 260° 260° 4 kt METAR VTCC 211330Z 26004KT 7000 -TSRA FEW022CB BKN035 24/22 Q1010 NOSIG
20:00
M
24 °C 7 km 3.000 ft 080° 080° 4 kt METAR VTCC 211300Z 08004KT 7000 -TSRA FEW022CB OVC030 24/22 Q1010 NOSIG
19:30
M
24 °C 7 km 3.000 ft 030° 030° 9 kt METAR VTCC 211230Z 03009KT 7000 -TSRA FEW022CB OVC030 24/22 Q1009 NOSIG
19:00
M
24 °C 7 km 3.000 ft 360° 360° 17 kt METAR VTCC 211200Z 36017KT 7000 -TSRA FEW022CB BKN030 24/22 Q1008 NOSIG
18:30
M
24 °C 8 km 3.000 ft 360° 360° 21 kt METAR VTCC 211130Z 36021KT 8000 3000N -TSRA FEW022CB BKN030 24/22 Q1008 RERA BECMG 5000 TSRA
18:00
I
25 °C 4 km 3.500 ft 350° 350° 24 - 34 kt METAR VTCC 211100Z 35024G34KT 4000 SHRA FEW025CB BKN035 25/23 Q1007 BECMG 5000 TSRA
17:30
V
33 °C 10 km+ - 110° 110° 4 kt METAR VTCC 211030Z 11004KT 040V180 9999 FEW025CB SCT035 33/22 Q1005 WS ALL RWY TEMPO FM1120 4000 TSRA
17:00
V
33 °C 10 km+ - 160° 160° 6 kt METAR VTCC 211000Z 16006KT 100V220 9999 SCT035 33/22 Q1005 NOSIG
16:30
V
33 °C 10 km+ - 130° 130° 7 kt METAR VTCC 210930Z 13007KT 080V160 9999 SCT035 33/22 Q1004 NOSIG
16:00
V
33 °C 10 km+ - 150° 150° 4 kt METAR VTCC 210900Z 15004KT 100V210 9999 SCT035 33/22 Q1004 NOSIG
15:30
V
33 °C 10 km+ - 180° 180° 5 kt METAR VTCC 210830Z 18005KT 130V220 9999 SCT035 33/22 Q1005 NOSIG
15:00
V
33 °C 10 km+ - 150° 150° 7 kt METAR VTCC 210800Z 15007KT 110V230 9999 SCT035 33/22 Q1005 NOSIG
14:30
V
32 °C 10 km+ 3.500 ft 200° 200° 7 kt METAR VTCC 210730Z 20007KT 130V270 9999 BKN035 32/23 Q1005 NOSIG
14:00
V
33 °C 10 km+ 3.500 ft 190° 190° 8 kt METAR VTCC 210700Z 19008KT 160V220 9999 BKN035 33/23 Q1006 NOSIG
13:30
V
33 °C 10 km+ 3.500 ft 190° 190° 5 kt METAR VTCC 210630Z 19005KT 130V260 9999 BKN035 33/22 Q1007 NOSIG
13:00
V
32 °C 10 km+ 3.500 ft 150° 150° 5 kt METAR VTCC 210600Z 15005KT 100V180 9999 BKN035 32/22 Q1007 NOSIG
12:30
V
32 °C 10 km+ 3.500 ft 160° 160° 5 kt METAR VTCC 210530Z 16005KT 110V240 9999 BKN035 32/22 Q1008 NOSIG
12:00
V
32 °C 10 km+ 3.500 ft 160° 160° 6 kt METAR VTCC 210500Z 16006KT 100V210 9999 BKN035 32/22 Q1008 NOSIG
11:30
V
32 °C 10 km+ 3.500 ft Var Var 4 kt METAR VTCC 210430Z VRB04KT 9999 BKN035 32/22 Q1009 NOSIG
11:00
V
31 °C 10 km+ - Var Var 5 kt METAR VTCC 210400Z VRB05KT 9999 SCT035 31/23 Q1009 NOSIG
10:30
V
32 °C 10 km+ - Var Var 5 kt METAR VTCC 210330Z VRB05KT 9999 SCT035 32/24 Q1009 NOSIG
10:00
V
30 °C 10 km+ - 190° 190° 5 kt METAR VTCC 210300Z 19005KT 160V230 9999 FEW030 SCT040 30/23 Q1010 NOSIG
09:30
V
30 °C 10 km+ - Var Var 3 kt METAR VTCC 210230Z VRB03KT 9999 FEW030 SCT040 30/23 Q1010 NOSIG
09:00
V
29 °C 10 km+ - Var Var 4 kt METAR VTCC 210200Z VRB04KT 9999 FEW030 SCT040 29/24 Q1010 NOSIG
08:30
V
28 °C 10 km+ - Var Var 2 kt METAR VTCC 210130Z VRB02KT 9999 SCT035 28/23 Q1010 NOSIG
08:00
V
28 °C 10 km+ 3.500 ft Var Var 1 kt METAR VTCC 210100Z VRB01KT 9999 BKN035 28/23 Q1009 NOSIG
07:30
V
27 °C 10 km+ 3.500 ft Var Var 1 kt METAR VTCC 210030Z VRB01KT 9999 BKN035 27/24 Q1009 NOSIG
07:00
V
26 °C 10 km+ 3.500 ft 290° 290° 3 kt METAR VTCC 210000Z 29003KT 9999 FEW018 BKN035 26/24 Q1009 NOSIG
06:30
V
26 °C 10 km+ 3.500 ft Var Var 2 kt METAR VTCC 202330Z VRB02KT 9999 FEW018 BKN035 26/23 Q1008 NOSIG
06:00
V
26 °C 10 km+ 3.500 ft 080° 080° 3 kt METAR VTCC 202300Z 08003KT 060V120 9999 -RA BKN035 26/23 Q1008 NOSIG
05:30
V
26 °C 10 km+ 3.500 ft 080° 080° 5 kt METAR VTCC 202230Z 08005KT 9999 -RA BKN035 26/23 Q1008 TEMPO 4000 TSRA
05:00
V
26 °C 10 km+ 3.500 ft 040° 040° 6 kt METAR VTCC 202200Z 04006KT 9999 -RA FEW025CB BKN035 26/23 Q1007 TEMPO 4000 TSRA
04:30
V
25 °C 10 km+ 3.500 ft 040° 040° 3 kt METAR VTCC 202130Z 04003KT 9999 BKN035 25/24 Q1007 NOSIG
04:00
V
25 °C 10 km+ 3.500 ft 110° 110° 5 kt METAR VTCC 202100Z 11005KT 9999 BKN035 25/24 Q1007 NOSIG
03:30
V
25 °C 10 km+ 3.500 ft 070° 070° 3 kt METAR VTCC 202030Z 07003KT 040V110 9999 BKN035 25/24 Q1006 NOSIG
03:00
V
25 °C 10 km+ 3.500 ft 340° 340° 3 kt METAR VTCC 202000Z 34003KT 290V360 9999 BKN035 25/24 Q1007 NOSIG
02:30
V
25 °C 10 km+ 3.500 ft 170° 170° 5 kt METAR VTCC 201930Z 17005KT 9999 BKN035 25/24 Q1007 NOSIG
02:00
V
25 °C 10 km+ 3.500 ft 200° 200° 3 kt METAR VTCC 201900Z 20003KT 9999 BKN035 25/23 Q1007 NOSIG
01:30
V
26 °C 8 km 3.500 ft 190° 190° 6 kt METAR VTCC 201830Z 19006KT 8000 BKN035 26/23 Q1007 NOSIG
01:00
V
27 °C 8 km 3.500 ft 220° 220° 6 kt METAR VTCC 201800Z 22006KT 8000 -RA BKN035 27/24 Q1007 NOSIG
00:30
V
27 °C 8 km 3.500 ft Var Var 3 kt METAR VTCC 201730Z VRB03KT 8000 -RA BKN035 27/25 Q1007 RETS NOSIG
00:00
V
26 °C 8 km 3.500 ft 110° 110° 5 kt METAR VTCC 201700Z 11005KT 8000 -TSRA FEW025CB BKN035 26/24 Q1007 NOSIG

20 de maio de 2024

Hora Código Clima Temp. Visibilidade Tecto Vento METAR/SPECI
23:30
V
29 °C 8 km 3.500 ft 050° 050° 5 kt METAR VTCC 201630Z 05005KT 360V090 8000 -TSRA FEW025CB BKN035 29/23 Q1008 TEMPO TL1730 32010G20KT 4000 TSRA
23:00
V
30 °C 10 km+ 3.500 ft 100° 100° 5 kt METAR VTCC 201600Z 10005KT 9999 FEW025TCU BKN035 30/23 Q1008 NOSIG
22:30
V
30 °C 10 km+ - Var Var 5 kt METAR VTCC 201530Z VRB05KT 9999 FEW025TCU SCT035 30/22 Q1007 NOSIG
22:00
V
31 °C 10 km+ 3.500 ft 010° 010° 7 kt METAR VTCC 201500Z 01007KT 9999 FEW025TCU BKN035 31/23 Q1006 NOSIG
21:30
V
31 °C 10 km+ 3.500 ft 220° 220° 3 kt METAR VTCC 201430Z 22003KT 180V290 9999 -RA FEW025TCU BKN035 31/23 Q1006 TEMPO 4500 TSRA FEW025CB BKN035
21:00
V
31 °C 10 km+ 3.500 ft 230° 230° 5 kt METAR VTCC 201400Z 23005KT 9999 BKN035 31/23 Q1006 NOSIG
20:30
V
31 °C 10 km+ - 240° 240° 3 kt METAR VTCC 201330Z 24003KT 9999 SCT035 31/23 Q1005 NOSIG
20:00
V
31 °C 10 km+ - 250° 250° 6 kt METAR VTCC 201300Z 25006KT 9999 SCT035 31/23 Q1005 NOSIG
19:30
V
32 °C 10 km+ - Var Var 2 kt METAR VTCC 201230Z VRB02KT 9999 SCT035 32/22 Q1004 NOSIG
19:00
V
32 °C 10 km+ - 150° 150° 3 kt METAR VTCC 201200Z 15003KT 090V180 9999 SCT035 32/23 Q1004 NOSIG
18:30
V
32 °C 10 km+ - 130° 130° 5 kt METAR VTCC 201130Z 13005KT 9999 SCT035 32/23 Q1003 NOSIG
18:00
V
34 °C 10 km+ - 170° 170° 7 kt METAR VTCC 201100Z 17007KT 140V200 9999 FEW025TCU SCT035 34/23 Q1003 NOSIG
17:30
V
35 °C 10 km+ - 210° 210° 7 kt METAR VTCC 201030Z 21007KT 190V250 9999 SCT035 35/21 Q1002 NOSIG
17:00
V
35 °C 10 km+ - 240° 240° 8 kt METAR VTCC 201000Z 24008KT 210V270 9999 SCT035 35/22 Q1002 NOSIG
16:30
V
35 °C 10 km+ - 250° 250° 8 kt METAR VTCC 200930Z 25008KT 9999 SCT035 35/23 Q1001 NOSIG
16:00
V
34 °C 10 km+ - 260° 260° 9 kt METAR VTCC 200900Z 26009KT 240V310 9999 FEW025CB SCT035 34/23 Q1002 NOSIG
15:30
V
34 °C 10 km+ - 240° 240° 10 kt METAR VTCC 200830Z 24010KT 9999 FEW025CB SCT035 34/24 Q1002 NOSIG
15:00
V
35 °C 10 km+ - 220° 220° 9 kt METAR VTCC 200800Z 22009KT 9999 FEW025CB SCT035 35/24 Q1003 TEMPO -TSRA
14:30
V
36 °C 10 km+ - 240° 240° 6 kt METAR VTCC 200730Z 24006KT 190V330 9999 FEW025CB SCT035 36/24 Q1003 TEMPO -TSRA
14:00
V
36 °C 10 km+ - 230° 230° 5 kt METAR VTCC 200700Z 23005KT 190V360 9999 FEW025CB SCT035 36/24 Q1004 NOSIG
13:30
V
35 °C 10 km+ - 210° 210° 6 kt METAR VTCC 200630Z 21006KT 170V260 9999 FEW025TCU SCT035 35/24 Q1005 NOSIG
13:00
V
34 °C 10 km+ - 210° 210° 5 kt METAR VTCC 200600Z 21005KT 180V250 9999 SCT035 34/24 Q1006 NOSIG
Relatar uma mudança